createdAt,value
2019-03-21T00:00:56.537Z,932.26
2019-03-21T00:01:56.535Z,932.26
2019-03-21T00:02:56.527Z,932.29
2019-03-21T00:03:56.512Z,932.29
2019-03-21T00:04:56.532Z,932.26
2019-03-21T00:05:56.522Z,932.24
2019-03-21T00:06:56.545Z,932.28
2019-03-21T00:07:56.536Z,932.28
2019-03-21T00:08:56.489Z,932.29
2019-03-21T00:09:56.471Z,932.28
2019-03-21T00:10:56.476Z,932.29
2019-03-21T00:11:56.454Z,932.31
2019-03-21T00:12:56.442Z,932.27
2019-03-21T00:14:06.432Z,932.32
2019-03-21T00:14:56.431Z,932.34
2019-03-21T00:15:56.426Z,932.29
2019-03-21T00:16:56.409Z,932.26
2019-03-21T00:17:56.407Z,932.30
2019-03-21T00:18:56.394Z,932.29
2019-03-21T00:19:56.411Z,932.26
2019-03-21T00:20:56.399Z,932.26
2019-03-21T00:21:56.375Z,932.31
2019-03-21T00:22:56.388Z,932.28
2019-03-21T00:23:56.381Z,932.29
2019-03-21T00:24:56.364Z,932.31
2019-03-21T00:25:56.337Z,932.33
2019-03-21T00:26:56.340Z,932.29
2019-03-21T00:27:56.350Z,932.32
2019-03-21T00:28:56.331Z,932.33
2019-03-21T00:29:56.323Z,932.34
2019-03-21T00:30:56.315Z,932.36
2019-03-21T00:31:56.304Z,932.35
2019-03-21T00:32:56.291Z,932.37
2019-03-21T00:33:56.271Z,932.36
2019-03-21T00:34:56.294Z,932.36
2019-03-21T00:35:56.259Z,932.31
2019-03-21T00:36:56.267Z,932.26
2019-03-21T00:37:56.298Z,932.26
2019-03-21T00:38:56.264Z,932.23
2019-03-21T00:39:56.260Z,932.26
2019-03-21T00:40:56.230Z,932.24
2019-03-21T00:41:56.236Z,932.24
2019-03-21T00:42:56.201Z,932.21
2019-03-21T00:43:56.205Z,932.26
2019-03-21T00:44:56.202Z,932.24
2019-03-21T00:45:56.237Z,932.23
2019-03-21T00:46:56.181Z,932.21
2019-03-21T00:47:56.423Z,932.19
2019-03-21T00:48:56.166Z,932.16
2019-03-21T00:49:56.160Z,932.20
2019-03-21T00:50:56.198Z,932.23
2019-03-21T00:51:56.152Z,932.24
2019-03-21T00:52:56.140Z,932.25
2019-03-21T00:53:56.140Z,932.25
2019-03-21T00:54:56.134Z,932.29
2019-03-21T00:55:56.157Z,932.31
2019-03-21T00:56:56.119Z,932.30
2019-03-21T00:57:58.449Z,932.32
2019-03-21T00:58:56.083Z,932.27
2019-03-21T00:59:56.079Z,932.25
2019-03-21T01:00:56.090Z,932.28
2019-03-21T01:01:56.102Z,932.26
2019-03-21T01:02:56.067Z,932.23
2019-03-21T01:03:56.046Z,932.20
2019-03-21T01:04:56.046Z,932.16
2019-03-21T01:05:56.018Z,932.19
2019-03-21T01:06:56.023Z,932.17
2019-03-21T01:07:56.018Z,932.23
2019-03-21T01:08:56.010Z,932.17
2019-03-21T01:09:56.007Z,932.17
2019-03-21T01:10:56.011Z,932.18
2019-03-21T01:11:56.007Z,932.19
2019-03-21T01:12:55.976Z,932.16
2019-03-21T01:13:55.972Z,932.10
2019-03-21T01:14:55.965Z,932.08
2019-03-21T01:15:55.960Z,932.13
2019-03-21T01:16:55.967Z,932.09
2019-03-21T01:17:56.196Z,932.09
2019-03-21T01:18:56.139Z,932.10
2019-03-21T01:19:55.938Z,932.09
2019-03-21T01:20:55.932Z,932.07
2019-03-21T01:21:55.907Z,932.10
2019-03-21T01:23:00.959Z,932.07
2019-03-21T01:23:57.125Z,932.08
2019-03-21T01:24:55.887Z,932.06
2019-03-21T01:25:55.874Z,932.07
2019-03-21T01:26:55.915Z,932.05
2019-03-21T01:27:57.135Z,932.10
2019-03-21T01:28:55.902Z,932.02
2019-03-21T01:29:56.064Z,932.00
2019-03-21T01:30:56.048Z,932.05
2019-03-21T01:31:55.814Z,931.98
2019-03-21T01:32:55.872Z,932.01
2019-03-21T01:33:55.822Z,931.94
2019-03-21T01:34:55.802Z,931.94
2019-03-21T01:35:55.808Z,931.96
2019-03-21T01:36:55.807Z,932.00
2019-03-21T01:37:55.764Z,931.96
2019-03-21T01:38:55.773Z,931.96
2019-03-21T01:39:55.779Z,931.95
2019-03-21T01:40:55.955Z,931.95
2019-03-21T01:41:55.736Z,931.93
2019-03-21T01:42:55.754Z,931.95
2019-03-21T01:43:55.732Z,931.96
2019-03-21T01:44:55.733Z,931.99
2019-03-21T01:45:55.721Z,931.99
2019-03-21T01:46:55.705Z,932.00
2019-03-21T01:47:55.689Z,932.01
2019-03-21T01:48:55.708Z,931.97
2019-03-21T01:49:55.689Z,931.91
2019-03-21T01:50:55.682Z,931.93
2019-03-21T01:51:55.674Z,931.91
2019-03-21T01:52:55.685Z,931.92
2019-03-21T01:53:55.648Z,931.93
2019-03-21T01:54:55.664Z,931.92
2019-03-21T01:55:55.619Z,931.95
2019-03-21T01:56:55.612Z,931.90
2019-03-21T01:57:55.622Z,931.96
2019-03-21T01:58:55.651Z,931.93
2019-03-21T01:59:55.581Z,931.93
2019-03-21T02:00:55.591Z,931.91
2019-03-21T02:01:55.593Z,931.89
2019-03-21T02:02:55.583Z,931.88
2019-03-21T02:03:55.568Z,931.91
2019-03-21T02:04:55.554Z,931.92
2019-03-21T02:05:55.553Z,931.97
2019-03-21T02:06:55.551Z,931.95
2019-03-21T02:07:55.530Z,931.96
2019-03-21T02:08:55.525Z,931.94
2019-03-21T02:09:55.524Z,931.95
2019-03-21T02:10:55.504Z,931.94
2019-03-21T02:11:55.512Z,931.90
2019-03-21T02:12:55.502Z,931.90
2019-03-21T02:13:55.494Z,931.90
2019-03-21T02:14:55.475Z,931.90
2019-03-21T02:15:55.471Z,931.87
2019-03-21T02:16:55.469Z,931.87
2019-03-21T02:17:55.453Z,931.90
2019-03-21T02:18:55.453Z,931.88
2019-03-21T02:19:55.443Z,931.91
2019-03-21T02:20:55.422Z,931.92
2019-03-21T02:21:55.444Z,931.91
2019-03-21T02:22:55.459Z,931.93
2019-03-21T02:23:55.397Z,931.89
2019-03-21T02:24:55.408Z,931.92
2019-03-21T02:25:55.394Z,931.91
2019-03-21T02:26:55.380Z,931.91
2019-03-21T02:27:55.390Z,931.92
2019-03-21T02:28:55.410Z,931.92
2019-03-21T02:29:55.365Z,931.97
2019-03-21T02:30:55.364Z,932.00
2019-03-21T02:31:55.332Z,931.98
2019-03-21T02:32:55.355Z,931.99
2019-03-21T02:33:55.333Z,931.97
2019-03-21T02:34:55.334Z,931.97
2019-03-21T02:35:55.317Z,931.97
2019-03-21T02:36:55.319Z,931.98
2019-03-21T02:37:55.314Z,931.97
2019-03-21T02:38:55.301Z,931.96
2019-03-21T02:39:59.711Z,931.98
2019-03-21T02:40:55.273Z,931.97
2019-03-21T02:41:55.256Z,931.94
2019-03-21T02:42:55.267Z,931.96
2019-03-21T02:43:55.267Z,931.94
2019-03-21T02:45:07.811Z,932.00
2019-03-21T02:45:55.247Z,931.97
2019-03-21T02:46:55.236Z,931.99
2019-03-21T02:47:55.249Z,932.00
2019-03-21T02:48:55.210Z,932.03
2019-03-21T02:49:55.202Z,932.00
2019-03-21T02:50:55.199Z,932.02
2019-03-21T02:51:55.170Z,932.00
2019-03-21T02:52:55.182Z,931.99
2019-03-21T02:53:55.161Z,932.05
2019-03-21T02:54:55.166Z,931.99
2019-03-21T02:55:55.159Z,932.07
2019-03-21T02:56:55.139Z,932.03
2019-03-21T02:57:55.181Z,932.02
2019-03-21T02:58:55.124Z,932.02
2019-03-21T02:59:55.104Z,932.08
2019-03-21T03:00:55.108Z,932.06
2019-03-21T03:01:55.094Z,932.06
2019-03-21T03:02:55.108Z,932.04
2019-03-21T03:03:55.072Z,932.10
2019-03-21T03:04:55.072Z,932.10
2019-03-21T03:05:55.075Z,932.11
2019-03-21T03:06:55.059Z,932.12
2019-03-21T03:07:55.052Z,932.15
2019-03-21T03:08:55.046Z,932.19
2019-03-21T03:09:55.032Z,932.21
2019-03-21T03:10:55.014Z,932.16
2019-03-21T03:11:55.001Z,932.17
2019-03-21T03:12:55.003Z,932.19
2019-03-21T03:13:55.055Z,932.19
2019-03-21T03:14:55.005Z,932.25
2019-03-21T03:15:55.000Z,932.24
2019-03-21T03:16:55.034Z,932.25
2019-03-21T03:17:54.983Z,932.27
2019-03-21T03:18:55.011Z,932.30
2019-03-21T03:19:55.002Z,932.30
2019-03-21T03:20:54.993Z,932.32
2019-03-21T03:21:54.957Z,932.33
2019-03-21T03:22:54.933Z,932.31
2019-03-21T03:23:54.912Z,932.29
2019-03-21T03:24:54.955Z,932.30
2019-03-21T03:25:54.902Z,932.32
2019-03-21T03:26:54.902Z,932.30
2019-03-21T03:27:54.885Z,932.27
2019-03-21T03:28:54.881Z,932.30
2019-03-21T03:29:54.872Z,932.28
2019-03-21T03:30:54.923Z,932.28
2019-03-21T03:31:54.853Z,932.29
2019-03-21T03:32:54.843Z,932.25
2019-03-21T03:33:54.830Z,932.25
2019-03-21T03:34:54.870Z,932.24
2019-03-21T03:35:54.857Z,932.28
2019-03-21T03:36:54.810Z,932.28
2019-03-21T03:37:54.817Z,932.29
2019-03-21T03:38:54.844Z,932.27
2019-03-21T03:39:54.793Z,932.30
2019-03-21T03:40:54.783Z,932.30
2019-03-21T03:41:54.818Z,932.29
2019-03-21T03:42:54.754Z,932.25
2019-03-21T03:43:54.763Z,932.24
2019-03-21T03:44:54.742Z,932.25
2019-03-21T03:45:54.735Z,932.25
2019-03-21T03:46:54.753Z,932.21
2019-03-21T03:47:54.714Z,932.24
2019-03-21T03:48:54.705Z,932.22
2019-03-21T03:49:54.704Z,932.25
2019-03-21T03:50:54.699Z,932.20
2019-03-21T03:51:54.702Z,932.20
2019-03-21T03:52:54.666Z,932.20
2019-03-21T03:53:54.816Z,932.17
2019-03-21T03:54:54.675Z,932.16
2019-03-21T03:55:54.641Z,932.21
2019-03-21T03:56:54.648Z,932.18
2019-03-21T03:57:54.633Z,932.22
2019-03-21T03:58:54.628Z,932.21
2019-03-21T03:59:54.672Z,932.19
2019-03-21T04:00:54.623Z,932.21
2019-03-21T04:01:54.607Z,932.21
2019-03-21T04:02:54.605Z,932.20
2019-03-21T04:03:54.634Z,932.16
2019-03-21T04:04:54.590Z,932.17
2019-03-21T04:05:54.572Z,932.19
2019-03-21T04:06:54.575Z,932.16
2019-03-21T04:07:54.590Z,932.13
2019-03-21T04:08:54.583Z,932.14
2019-03-21T04:09:54.549Z,932.15
2019-03-21T04:10:54.513Z,932.16
2019-03-21T04:11:54.503Z,932.14
2019-03-21T04:12:54.515Z,932.13
2019-03-21T04:13:54.500Z,932.13
2019-03-21T04:14:54.488Z,932.08
2019-03-21T04:15:54.513Z,932.09
2019-03-21T04:16:54.462Z,932.10
2019-03-21T04:17:54.472Z,932.11
2019-03-21T04:18:54.449Z,932.09
2019-03-21T04:19:54.444Z,932.08
2019-03-21T04:20:54.456Z,932.06
2019-03-21T04:21:54.437Z,932.05
2019-03-21T04:22:54.410Z,932.02
2019-03-21T04:23:54.417Z,932.03
2019-03-21T04:24:54.400Z,931.95
2019-03-21T04:25:54.402Z,931.96
2019-03-21T04:26:54.404Z,931.93
2019-03-21T04:27:54.360Z,931.96
2019-03-21T04:28:54.387Z,931.92
2019-03-21T04:29:54.354Z,931.94
2019-03-21T04:30:54.461Z,931.88
2019-03-21T04:31:54.355Z,931.86
2019-03-21T04:32:54.351Z,931.87
2019-03-21T04:33:54.335Z,931.85
2019-03-21T04:34:54.300Z,931.88
2019-03-21T04:35:54.325Z,931.89
2019-03-21T04:36:54.291Z,931.85
2019-03-21T04:37:54.313Z,931.83
2019-03-21T04:38:54.285Z,931.85
2019-03-21T04:39:54.270Z,931.79
2019-03-21T04:40:54.264Z,931.77
2019-03-21T04:41:54.267Z,931.81
2019-03-21T04:42:54.254Z,931.78
2019-03-21T04:43:54.244Z,931.81
2019-03-21T04:44:54.238Z,931.80
2019-03-21T04:46:02.801Z,931.76
2019-03-21T04:46:54.225Z,931.72
2019-03-21T04:47:54.253Z,931.76
2019-03-21T04:48:54.204Z,931.74
2019-03-21T04:49:54.196Z,931.72
2019-03-21T04:50:54.198Z,931.75
2019-03-21T04:51:54.177Z,931.71
2019-03-21T04:52:54.161Z,931.73
2019-03-21T04:53:54.166Z,931.69
2019-03-21T04:54:54.142Z,931.74
2019-03-21T04:55:54.187Z,931.74
2019-03-21T04:56:54.148Z,931.69
2019-03-21T04:57:54.172Z,931.70
2019-03-21T04:58:54.110Z,931.69
2019-03-21T04:59:54.108Z,931.71
2019-03-21T05:00:54.117Z,931.70
2019-03-21T05:01:54.086Z,931.72
2019-03-21T05:02:54.074Z,931.72
2019-03-21T05:03:54.080Z,931.69
2019-03-21T05:04:54.074Z,931.69
2019-03-21T05:05:54.063Z,931.68
2019-03-21T05:06:54.057Z,931.64
2019-03-21T05:07:54.033Z,931.66
2019-03-21T05:08:54.026Z,931.67
2019-03-21T05:09:54.016Z,931.65
2019-03-21T05:10:54.014Z,931.61
2019-03-21T05:11:54.005Z,931.64
2019-03-21T05:12:53.987Z,931.61
2019-03-21T05:13:54.007Z,931.61
2019-03-21T05:14:53.987Z,931.59
2019-03-21T05:15:53.966Z,931.64
2019-03-21T05:16:53.954Z,931.59
2019-03-21T05:17:53.973Z,931.60
2019-03-21T05:18:53.944Z,931.57
2019-03-21T05:19:53.935Z,931.53
2019-03-21T05:20:53.933Z,931.55
2019-03-21T05:21:53.921Z,931.59
2019-03-21T05:22:53.918Z,931.54
2019-03-21T05:23:53.923Z,931.51
2019-03-21T05:24:53.944Z,931.50
2019-03-21T05:25:53.932Z,931.57
2019-03-21T05:26:53.887Z,931.53
2019-03-21T05:27:53.860Z,931.52
2019-03-21T05:28:53.860Z,931.53
2019-03-21T05:29:53.831Z,931.51
2019-03-21T05:30:53.845Z,931.52
2019-03-21T05:31:53.829Z,931.50
2019-03-21T05:32:53.823Z,931.49
2019-03-21T05:33:53.818Z,931.46
2019-03-21T05:34:53.801Z,931.43
2019-03-21T05:35:53.786Z,931.41
2019-03-21T05:36:53.772Z,931.40
2019-03-21T05:37:53.816Z,931.38
2019-03-21T05:38:53.769Z,931.40
2019-03-21T05:39:53.809Z,931.39
2019-03-21T05:40:53.761Z,931.34
2019-03-21T05:41:53.750Z,931.34
2019-03-21T05:42:53.751Z,931.31
2019-03-21T05:43:53.738Z,931.33
2019-03-21T05:44:53.716Z,931.33
2019-03-21T05:45:53.720Z,931.29
2019-03-21T05:46:53.739Z,931.27
2019-03-21T05:47:53.709Z,931.26
2019-03-21T05:48:53.696Z,931.24
2019-03-21T05:49:53.668Z,931.23
2019-03-21T05:50:53.676Z,931.21
2019-03-21T05:51:53.674Z,931.21
2019-03-21T05:52:53.645Z,931.18
2019-03-21T05:53:53.652Z,931.18
2019-03-21T05:54:53.621Z,931.19
2019-03-21T05:55:53.619Z,931.16
2019-03-21T05:56:53.629Z,931.18
2019-03-21T05:57:53.620Z,931.16
2019-03-21T05:58:53.620Z,931.14
2019-03-21T05:59:53.632Z,931.15
2019-03-21T06:00:53.579Z,931.14
2019-03-21T06:01:53.561Z,931.10
2019-03-21T06:02:53.560Z,931.08
2019-03-21T06:03:53.571Z,931.05
2019-03-21T06:04:53.552Z,931.05
2019-03-21T06:05:53.634Z,930.98
2019-03-21T06:06:53.526Z,930.96
2019-03-21T06:07:53.515Z,930.97
2019-03-21T06:08:53.508Z,930.88
2019-03-21T06:09:53.556Z,930.91
2019-03-21T06:10:53.509Z,930.86
2019-03-21T06:11:53.494Z,930.85
2019-03-21T06:12:53.490Z,930.83
2019-03-21T06:13:53.459Z,930.82
2019-03-21T06:14:53.485Z,930.79
2019-03-21T06:15:53.469Z,930.76
2019-03-21T06:16:53.466Z,930.72
2019-03-21T06:17:53.423Z,930.74
2019-03-21T06:18:53.415Z,930.67
2019-03-21T06:19:53.418Z,930.67
2019-03-21T06:20:53.422Z,930.63
2019-03-21T06:21:53.405Z,930.62
2019-03-21T06:22:53.383Z,930.56
2019-03-21T06:23:53.403Z,930.58
2019-03-21T06:24:53.373Z,930.56
2019-03-21T06:25:53.353Z,930.55
2019-03-21T06:26:53.364Z,930.52
2019-03-21T06:27:53.369Z,930.54
2019-03-21T06:28:53.353Z,930.51
2019-03-21T06:29:53.343Z,930.49
2019-03-21T06:30:53.333Z,930.46
2019-03-21T06:31:53.331Z,930.45
2019-03-21T06:32:53.300Z,930.44
2019-03-21T06:33:53.322Z,930.44
2019-03-21T06:34:53.300Z,930.48
2019-03-21T06:35:53.282Z,930.48
2019-03-21T06:36:53.273Z,930.48
2019-03-21T06:37:53.273Z,930.52
2019-03-21T06:38:53.249Z,930.49
2019-03-21T06:39:53.253Z,930.46
2019-03-21T06:40:53.249Z,930.44
2019-03-21T06:41:53.246Z,930.48
2019-03-21T06:42:53.221Z,930.47
2019-03-21T06:43:53.274Z,930.42
2019-03-21T06:44:53.229Z,930.43
2019-03-21T06:45:53.201Z,930.45
2019-03-21T06:46:53.175Z,930.44
2019-03-21T06:47:53.308Z,930.47
2019-03-21T06:48:53.184Z,930.46
2019-03-21T06:49:53.155Z,930.46
2019-03-21T06:50:53.159Z,930.42
2019-03-21T06:51:53.158Z,930.40
2019-03-21T06:52:53.137Z,930.41
2019-03-21T06:53:53.164Z,930.44
2019-03-21T06:54:53.133Z,930.40
2019-03-21T06:55:53.116Z,930.41
2019-03-21T06:56:53.117Z,930.39
2019-03-21T06:57:53.115Z,930.42
2019-03-21T06:58:53.134Z,930.39
2019-03-21T06:59:53.090Z,930.36
2019-03-21T07:00:53.083Z,930.32
2019-03-21T07:01:53.056Z,930.38
2019-03-21T07:02:53.063Z,930.35
2019-03-21T07:03:53.056Z,930.33
2019-03-21T07:04:53.048Z,930.40
2019-03-21T07:05:53.038Z,930.35
2019-03-21T07:06:53.033Z,930.40
2019-03-21T07:07:53.002Z,930.46
2019-03-21T07:08:53.013Z,930.45
2019-03-21T07:09:52.996Z,930.53
2019-03-21T07:10:52.996Z,930.52
2019-03-21T07:11:52.987Z,930.52
2019-03-21T07:12:52.944Z,930.58
2019-03-21T07:13:52.944Z,930.60
2019-03-21T07:14:52.930Z,930.65
2019-03-21T07:15:52.926Z,930.66
2019-03-21T07:17:00.454Z,930.69
2019-03-21T07:17:52.908Z,930.74
2019-03-21T07:18:52.916Z,930.81
2019-03-21T07:19:52.917Z,930.84
2019-03-21T07:20:52.891Z,930.86
2019-03-21T07:21:52.874Z,930.85
2019-03-21T07:22:52.873Z,930.92
2019-03-21T07:23:52.868Z,930.87
2019-03-21T07:24:52.878Z,930.94
2019-03-21T07:25:52.845Z,930.95
2019-03-21T07:26:52.840Z,930.93
2019-03-21T07:27:52.873Z,930.95
2019-03-21T07:28:52.867Z,930.96
2019-03-21T07:29:52.818Z,930.92
2019-03-21T07:30:52.798Z,930.92
2019-03-21T07:31:52.778Z,930.98
2019-03-21T07:32:52.787Z,930.96
2019-03-21T07:33:52.764Z,930.96
2019-03-21T07:34:52.766Z,930.95
2019-03-21T07:35:52.752Z,930.98
2019-03-21T07:36:52.744Z,930.97
2019-03-21T07:37:52.756Z,930.99
2019-03-21T07:38:52.747Z,930.98
2019-03-21T07:39:52.738Z,930.97
2019-03-21T07:40:52.708Z,931.04
2019-03-21T07:41:52.708Z,931.00
2019-03-21T07:42:52.706Z,931.03
2019-03-21T07:43:52.681Z,931.03
2019-03-21T07:44:52.679Z,931.02
2019-03-21T07:45:52.664Z,931.00
2019-03-21T07:46:52.662Z,931.03
2019-03-21T07:47:52.668Z,931.03
2019-03-21T07:48:52.659Z,931.05
2019-03-21T07:49:52.645Z,931.07
2019-03-21T07:50:52.636Z,931.08
2019-03-21T07:51:52.632Z,931.07
2019-03-21T07:52:52.790Z,931.09
2019-03-21T07:53:52.597Z,931.08
2019-03-21T07:54:52.632Z,931.09
2019-03-21T07:55:52.557Z,931.09
2019-03-21T07:56:52.567Z,931.07
2019-03-21T07:57:52.560Z,931.08
2019-03-21T07:58:52.564Z,931.08
2019-03-21T07:59:52.520Z,931.10
2019-03-21T08:00:52.546Z,931.10
2019-03-21T08:01:52.535Z,931.07
2019-03-21T08:02:52.525Z,931.03
2019-03-21T08:03:52.647Z,931.05
2019-03-21T08:04:52.508Z,931.03
2019-03-21T08:05:52.488Z,931.01
2019-03-21T08:06:52.517Z,931.04
2019-03-21T08:07:52.478Z,931.00
2019-03-21T08:08:52.451Z,931.03
2019-03-21T08:09:52.446Z,931.07
2019-03-21T08:10:52.435Z,931.08
2019-03-21T08:11:52.422Z,931.11
2019-03-21T08:12:52.626Z,931.07
2019-03-21T08:13:52.405Z,931.11
2019-03-21T08:14:52.547Z,931.13
2019-03-21T08:15:52.383Z,931.17
2019-03-21T08:16:52.375Z,931.16
2019-03-21T08:17:52.381Z,931.20
2019-03-21T08:18:52.376Z,931.18
2019-03-21T08:19:52.371Z,931.20
2019-03-21T08:20:58.475Z,931.20
2019-03-21T08:21:52.328Z,931.19
2019-03-21T08:22:52.325Z,931.25
2019-03-21T08:23:52.332Z,931.26
2019-03-21T08:24:52.322Z,931.25
2019-03-21T08:25:52.301Z,931.30
2019-03-21T08:26:52.287Z,931.32
2019-03-21T08:27:52.295Z,931.30
2019-03-21T08:28:52.278Z,931.31
2019-03-21T08:29:52.268Z,931.30
2019-03-21T08:30:52.258Z,931.35
2019-03-21T08:31:52.236Z,931.33
2019-03-21T08:32:52.219Z,931.39
2019-03-21T08:33:52.210Z,931.37
2019-03-21T08:34:52.219Z,931.42
2019-03-21T08:35:52.192Z,931.39
2019-03-21T08:36:52.245Z,931.41
2019-03-21T08:37:52.190Z,931.40
2019-03-21T08:38:52.168Z,931.39
2019-03-21T08:39:52.176Z,931.41
2019-03-21T08:40:52.157Z,931.41
2019-03-21T08:41:52.145Z,931.44
2019-03-21T08:42:52.154Z,931.43
2019-03-21T08:43:52.128Z,931.41
2019-03-21T08:44:52.125Z,931.42
2019-03-21T08:45:52.099Z,931.37
2019-03-21T08:46:52.243Z,931.37
2019-03-21T08:47:52.141Z,931.44
2019-03-21T08:48:52.101Z,931.39
2019-03-21T08:49:52.095Z,931.40
2019-03-21T08:50:52.078Z,931.36
2019-03-21T08:51:52.068Z,931.40
2019-03-21T08:52:52.190Z,931.35
2019-03-21T08:53:52.031Z,931.36
2019-03-21T08:54:52.039Z,931.37
2019-03-21T08:55:51.999Z,931.35
2019-03-21T08:56:51.993Z,931.36
2019-03-21T08:57:52.008Z,931.40
2019-03-21T08:58:52.005Z,931.41
2019-03-21T08:59:52.028Z,931.40
2019-03-21T09:00:52.020Z,931.39
2019-03-21T09:01:51.967Z,931.36
2019-03-21T09:02:51.963Z,931.34
2019-03-21T09:03:51.947Z,931.35
2019-03-21T09:04:51.934Z,931.35
2019-03-21T09:05:51.944Z,931.31
2019-03-21T09:06:52.775Z,931.31
2019-03-21T09:07:51.901Z,931.30
2019-03-21T09:08:51.880Z,931.29
2019-03-21T09:09:51.875Z,931.26
2019-03-21T09:10:51.921Z,931.26
2019-03-21T09:11:51.870Z,931.27
2019-03-21T09:12:51.867Z,931.31
2019-03-21T09:13:51.862Z,931.26
2019-03-21T09:14:51.845Z,931.28
2019-03-21T09:15:51.838Z,931.27
2019-03-21T09:16:51.823Z,931.32
2019-03-21T09:17:51.827Z,931.37
2019-03-21T09:18:51.860Z,931.41
2019-03-21T09:19:51.791Z,931.42
2019-03-21T09:20:51.794Z,931.43
2019-03-21T09:21:51.783Z,931.50
2019-03-21T09:22:51.751Z,931.51
2019-03-21T09:23:51.776Z,931.50
2019-03-21T09:24:51.739Z,931.51
2019-03-21T09:25:51.758Z,931.53
2019-03-21T09:26:51.717Z,931.53
2019-03-21T09:28:01.942Z,931.52
2019-03-21T09:28:51.725Z,931.53
2019-03-21T09:29:53.765Z,931.54
2019-03-21T09:30:51.744Z,931.56
2019-03-21T09:31:51.696Z,931.64
2019-03-21T09:32:51.671Z,931.61
2019-03-21T09:33:51.688Z,931.64
2019-03-21T09:34:51.663Z,931.65
2019-03-21T09:35:51.651Z,931.65
2019-03-21T09:36:51.627Z,931.66
2019-03-21T09:37:51.638Z,931.62
2019-03-21T09:38:51.629Z,931.68
2019-03-21T09:39:51.610Z,931.66
2019-03-21T09:40:51.608Z,931.66
2019-03-21T09:41:51.598Z,931.65
2019-03-21T09:42:56.641Z,931.67
2019-03-21T09:43:53.056Z,931.63
2019-03-21T09:44:51.568Z,931.65
2019-03-21T09:45:51.774Z,931.65
2019-03-21T09:46:56.602Z,931.68
2019-03-21T09:47:51.540Z,931.69
2019-03-21T09:48:52.729Z,931.68
2019-03-21T09:49:54.564Z,931.68
2019-03-21T09:50:51.525Z,931.68
2019-03-21T09:51:51.505Z,931.75
2019-03-21T09:52:52.735Z,931.74
2019-03-21T09:53:52.739Z,931.74
2019-03-21T09:54:51.472Z,931.75
2019-03-21T09:55:51.486Z,931.77
2019-03-21T09:56:51.453Z,931.78
2019-03-21T09:57:52.908Z,931.84
2019-03-21T09:58:51.428Z,931.86
2019-03-21T09:59:51.435Z,931.87
2019-03-21T10:00:51.482Z,931.89
2019-03-21T10:01:51.623Z,931.91
2019-03-21T10:02:51.412Z,931.86
2019-03-21T10:03:51.604Z,931.91
2019-03-21T10:04:51.603Z,931.91
2019-03-21T10:05:51.385Z,931.93
2019-03-21T10:06:51.376Z,931.94
2019-03-21T10:07:51.351Z,931.96
2019-03-21T10:08:52.578Z,932.02
2019-03-21T10:09:51.350Z,931.98
2019-03-21T10:10:52.781Z,932.04
2019-03-21T10:11:51.324Z,931.98
2019-03-21T10:12:51.330Z,932.01
2019-03-21T10:13:51.302Z,932.04
2019-03-21T10:14:51.297Z,932.02
2019-03-21T10:15:51.301Z,932.06
2019-03-21T10:16:51.484Z,932.07
2019-03-21T10:17:51.521Z,932.04
2019-03-21T10:18:51.252Z,932.04
2019-03-21T10:19:51.454Z,932.01
2019-03-21T10:20:51.487Z,932.06
2019-03-21T10:21:51.237Z,932.04
2019-03-21T10:22:51.219Z,932.04
2019-03-21T10:23:51.257Z,932.01
2019-03-21T10:24:51.198Z,931.99
2019-03-21T10:25:51.175Z,932.02
2019-03-21T10:26:51.223Z,932.05
2019-03-21T10:27:51.173Z,932.07
2019-03-21T10:28:51.149Z,932.11
2019-03-21T10:29:51.160Z,932.09
2019-03-21T10:30:51.157Z,932.10
2019-03-21T10:31:51.334Z,932.09
2019-03-21T10:32:51.314Z,932.13
2019-03-21T10:33:51.135Z,932.17
2019-03-21T10:34:51.298Z,932.21
2019-03-21T10:35:51.131Z,932.20
2019-03-21T10:36:51.270Z,932.25
2019-03-21T10:37:51.082Z,932.25
2019-03-21T10:38:51.080Z,932.26
2019-03-21T10:39:51.065Z,932.24
2019-03-21T10:40:51.053Z,932.23
2019-03-21T10:41:51.067Z,932.26
2019-03-21T10:42:51.031Z,932.31
2019-03-21T10:43:51.012Z,932.33
2019-03-21T10:44:51.001Z,932.34
2019-03-21T10:45:51.037Z,932.36
2019-03-21T10:46:50.984Z,932.35
2019-03-21T10:47:51.026Z,932.34
2019-03-21T10:48:50.958Z,932.31
2019-03-21T10:49:50.955Z,932.35
2019-03-21T10:50:50.960Z,932.37
2019-03-21T10:51:55.324Z,932.37
2019-03-21T10:52:50.919Z,932.41
2019-03-21T10:53:50.920Z,932.36
2019-03-21T10:54:50.902Z,932.37
2019-03-21T10:55:50.917Z,932.45
2019-03-21T10:56:50.899Z,932.48
2019-03-21T10:57:50.894Z,932.48
2019-03-21T10:58:50.878Z,932.44
2019-03-21T10:59:50.850Z,932.45
2019-03-21T11:00:50.865Z,932.50
2019-03-21T11:01:50.856Z,932.49
2019-03-21T11:02:50.847Z,932.54
2019-03-21T11:03:50.871Z,932.59
2019-03-21T11:04:50.803Z,932.57
2019-03-21T11:05:50.802Z,932.60
2019-03-21T11:06:50.812Z,932.60
2019-03-21T11:07:50.788Z,932.69
2019-03-21T11:08:50.778Z,932.70
2019-03-21T11:09:50.761Z,932.73
2019-03-21T11:10:50.772Z,932.77
2019-03-21T11:11:50.753Z,932.80
2019-03-21T11:12:50.753Z,932.78
2019-03-21T11:13:50.733Z,932.91
2019-03-21T11:14:50.734Z,932.85
2019-03-21T11:15:50.725Z,932.83
2019-03-21T11:16:50.715Z,932.88
2019-03-21T11:17:50.696Z,932.88
2019-03-21T11:18:50.669Z,932.89
2019-03-21T11:19:50.658Z,932.92
2019-03-21T11:20:50.703Z,932.96
2019-03-21T11:21:50.638Z,932.96
2019-03-21T11:22:50.660Z,933.04
2019-03-21T11:23:50.634Z,933.02
2019-03-21T11:24:50.611Z,933.01
2019-03-21T11:25:50.625Z,933.07
2019-03-21T11:26:50.626Z,933.06
2019-03-21T11:27:50.610Z,933.10
2019-03-21T11:28:50.595Z,933.07
2019-03-21T11:29:50.584Z,933.11
2019-03-21T11:30:50.574Z,933.13
2019-03-21T11:31:50.565Z,933.15
2019-03-21T11:32:50.549Z,933.21
2019-03-21T11:33:50.548Z,933.18
2019-03-21T11:34:50.527Z,933.20
2019-03-21T11:35:50.622Z,933.22
2019-03-21T11:36:50.526Z,933.26
2019-03-21T11:37:50.506Z,933.23
2019-03-21T11:38:50.483Z,933.23
2019-03-21T11:39:50.467Z,933.24
2019-03-21T11:40:50.469Z,933.28
2019-03-21T11:41:50.509Z,933.24
2019-03-21T11:42:50.440Z,933.30
2019-03-21T11:43:50.438Z,933.26
2019-03-21T11:44:50.552Z,933.30
2019-03-21T11:45:50.430Z,933.29
2019-03-21T11:46:50.414Z,933.25
2019-03-21T11:47:50.424Z,933.31
2019-03-21T11:48:50.453Z,933.26
2019-03-21T11:49:50.391Z,933.29
2019-03-21T11:50:50.370Z,933.33
2019-03-21T11:51:51.617Z,933.30
2019-03-21T11:52:50.352Z,933.33
2019-03-21T11:53:50.328Z,933.30
2019-03-21T11:54:50.333Z,933.35
2019-03-21T11:55:50.322Z,933.35
2019-03-21T11:56:50.305Z,933.39
2019-03-21T11:57:50.314Z,933.36
2019-03-21T11:58:50.277Z,933.38
2019-03-21T11:59:51.764Z,933.39
2019-03-21T12:00:50.293Z,933.42
2019-03-21T12:01:55.317Z,933.40
2019-03-21T12:02:50.239Z,933.43
2019-03-21T12:03:50.256Z,933.45
2019-03-21T12:04:50.258Z,933.48
2019-03-21T12:05:50.236Z,933.43
2019-03-21T12:06:50.211Z,933.47
2019-03-21T12:07:50.223Z,933.45
2019-03-21T12:08:50.208Z,933.44
2019-03-21T12:09:50.197Z,933.44
2019-03-21T12:10:50.160Z,933.49
2019-03-21T12:11:50.169Z,933.48
2019-03-21T12:12:50.164Z,933.53
2019-03-21T12:13:50.157Z,933.53
2019-03-21T12:14:50.147Z,933.52
2019-03-21T12:15:50.140Z,933.56
2019-03-21T12:16:50.127Z,933.56
2019-03-21T12:17:50.111Z,933.57
2019-03-21T12:18:50.301Z,933.64
2019-03-21T12:19:50.100Z,933.66
2019-03-21T12:20:50.092Z,933.72
2019-03-21T12:21:50.052Z,933.67
2019-03-21T12:22:50.067Z,933.72
2019-03-21T12:23:50.067Z,933.75
2019-03-21T12:24:50.047Z,933.68
2019-03-21T12:25:50.024Z,933.70
2019-03-21T12:26:50.041Z,933.71
2019-03-21T12:27:50.064Z,933.73
2019-03-21T12:28:50.052Z,933.71